Flight Track Log - Related Links

Times and Time Zones

All times are in EDT time to prevent confusion due to time zone crossing. See the UAL4498 flight status page for this flight to view local times or setup timezone preferences in your user account.

Time Position Orientation Groundspeed Altitude Reporting Facility
EDT Latitude Longitude Course Direction KTS MPH feet Rate Location/Type
Wed 08:04:05 PM 36.1778 -79.8069 58° Northeast 246 283 5,000  Level Washington Center
Wed 08:05:00 PM 36.1902 -79.7025 52° Northeast  Level FlightAware Approximate
Wed 08:05:06 PM 36.1975 -79.7231 74° East 251 289 7,400  Level Washington Center
Wed 08:06:00 PM 36.2404 -79.6176 61° Northeast  Level FlightAware Approximate
Wed 08:06:04 PM 36.2356 -79.6428 60° Northeast 257 296 10,500  Level Washington Center
Wed 08:07:00 PM 36.2815 -79.5251 61° Northeast  Level FlightAware Approximate
Wed 08:07:05 PM 36.2889 -79.5500 54° Northeast 283 326 11,700  Level Washington Center
Wed 08:08:00 PM 36.3334 -79.4444 47° Northeast  Level FlightAware Approximate
Wed 08:08:05 PM 36.3442 -79.4497 56° Northeast 326 375 13,900  Level Washington Center
Wed 08:09:00 PM 36.3854 -79.3626 58° Northeast  Level FlightAware Approximate
Wed 08:09:06 PM 36.4042 -79.3417 55° Northeast 357 411 15,900  Level Washington Center
Wed 08:10:04 PM 36.4714 -79.2597 44° Northeast 373 429 17,400 1,261 Climbing Washington Center
Wed 08:11:05 PM 36.5494 -79.1625 45° Northeast 378 435 18,400 1,180 Climbing Washington Center
Wed 08:12:06 PM 36.6400 -79.0606 42° Northeast 390 449 19,800 1,361 Climbing Washington Center
Wed 08:13:04 PM 36.7225 -78.9503 47° Northeast 413 475 21,100 1,220 Climbing Washington Center
Wed 08:14:04 PM 36.8025 -78.8422 47° Northeast 424 488 22,200 1,091 Climbing Washington Center
Wed 08:15:05 PM 36.8828 -78.7314 48° Northeast 424 488 23,300 893 Climbing Washington Center
Wed 08:16:05 PM 36.9650 -78.6178 48° Northeast 429 494 24,000 350 Climbing Washington Center
Wed 08:17:05 PM 37.0447 -78.5089 47° Northeast 440 506 24,000  Level Washington Center
Wed 08:18:06 PM 37.1311 -78.3872 48° Northeast 459 528 24,000  Level Washington Center
Wed 08:19:04 PM 37.2236 -78.2731 44° Northeast 459 528 24,000 -203 Level Washington Center
Wed 08:20:04 PM 37.3383 -78.1753 34° Northeast 452 520 23,600 -595 Descending Washington Center
Wed 08:21:05 PM 37.4275 -78.0972 35° Northeast 447 514 22,800 -843 Descending Washington Center
Wed 08:22:05 PM 37.5317 -78.0089 34° Northeast 447 514 21,900 -942 Descending Washington Center
Wed 08:23:06 PM 37.6292 -77.9256 34° Northeast 442 509 20,900 -1,008 Descending Washington Center
Wed 08:24:04 PM 37.7311 -77.8367 35° Northeast 442 509 19,900 -958 Descending Washington Center
Wed 08:25:05 PM 37.8264 -77.7528 35° Northeast 430 495 19,000 -1,623 Descending Washington Center
Wed 08:26:06 PM 37.9175 -77.6739 34° Northeast 419 482 16,600 -2,874 Descending Washington Center
Wed 08:27:04 PM 38.0064 -77.5972 34° Northeast 397 457 13,300 -2,898 Descending Washington Center
Wed 08:28:04 PM 38.0889 -77.5308 32° Northeast 369 425 10,900 -1,623 Descending Washington Center
Wed 08:29:06 PM 38.1628 -77.4667 34° Northeast 336 387 10,000 -541 Descending Washington Center
Wed 08:30:06 PM 38.2300 -77.4394 18° North 302 348 9,800 -559 Descending Washington Center
Wed 08:31:04 PM 38.3047 -77.4517 353° North 260 299 8,900 -958 Descending Washington Center
Wed 08:32:05 PM 38.3775 -77.4642 352° North 255 293 7,900 -893 Descending Washington Center
Wed 08:33:05 PM 38.4525 -77.4714 356° North 260 299 7,100 -397 Descending Washington Center
Wed 08:34:06 PM 38.5256 -77.4706 North 260 299 7,100 -298 Level Washington Center
Wed 08:35:06 PM 38.6006 -77.4672 North 255 293 6,500 -791 Descending Washington Center
Wed 08:35:37 PM 38.6500 -77.4667 North 257 296 5,900 -1,055 Descending Potomac TRACON
Wed 08:36:37 PM 38.7167 -77.4667 360° North 224 258 4,900 -1,250 Descending Potomac TRACON
Wed 08:37:37 PM 38.7833 -77.4667 360° North 225 259 3,400 -1,350 Descending Potomac TRACON
Wed 08:38:37 PM 38.8333 -77.4667 360° North 224 258 2,200 -1,048 Descending Potomac TRACON
Wed 08:39:43 PM 38.9000 -77.4667 360° North 162 186 1,200 -909 Descending Potomac TRACON

Login

Don't have an account? Register now (free) for customized features, flight alerts, and more!